createdAt,value
2022-12-01T00:02:10.639Z,22.77
2022-12-01T00:04:37.812Z,23.33
2022-12-01T00:07:04.862Z,23.07
2022-12-01T00:09:50.582Z,21.57
2022-12-01T00:12:17.756Z,21.57
2022-12-01T00:14:54.700Z,22.10
2022-12-01T00:17:22.484Z,23.23
2022-12-01T00:19:49.842Z,23.10
2022-12-01T00:22:17.104Z,23.70
2022-12-01T00:24:44.134Z,22.53
2022-12-01T00:27:11.189Z,21.87
2022-12-01T00:29:38.227Z,21.73
2022-12-01T00:32:05.502Z,21.33
2022-12-01T00:34:32.662Z,21.70
2022-12-01T00:37:00.346Z,22.27
2022-12-01T00:39:27.405Z,24.50
2022-12-01T00:41:54.581Z,23.13
2022-12-01T00:44:21.700Z,24.00
2022-12-01T00:46:48.848Z,24.00
2022-12-01T00:49:16.515Z,21.93
2022-12-01T00:51:43.644Z,21.67
2022-12-01T00:54:10.681Z,20.83
2022-12-01T00:56:37.743Z,22.93
2022-12-01T00:59:04.822Z,19.43
2022-12-01T01:01:31.942Z,20.27
2022-12-01T01:03:59.188Z,19.57
2022-12-01T01:06:26.222Z,22.07
2022-12-01T01:08:53.455Z,19.20
2022-12-01T01:11:20.555Z,19.80
2022-12-01T01:13:47.663Z,20.33
2022-12-01T01:16:16.224Z,21.33
2022-12-01T01:18:43.404Z,20.83
2022-12-01T01:21:12.707Z,20.23
2022-12-01T01:23:40.256Z,19.60
2022-12-01T01:26:08.565Z,19.43
2022-12-01T01:28:35.971Z,20.77
2022-12-01T01:31:06.950Z,19.23
2022-12-01T01:33:34.403Z,18.43
2022-12-01T01:36:01.948Z,19.60
2022-12-01T01:38:29.283Z,21.67
2022-12-01T01:40:56.590Z,19.50
2022-12-01T01:43:39.134Z,21.87
2022-12-01T01:46:06.709Z,21.27
2022-12-01T01:48:34.898Z,20.27
2022-12-01T01:51:02.516Z,22.47
2022-12-01T01:53:29.577Z,20.80
2022-12-01T01:55:56.808Z,20.87
2022-12-01T01:58:24.143Z,20.10
2022-12-01T02:00:51.246Z,20.67
2022-12-01T02:03:19.164Z,21.07
2022-12-01T02:05:46.888Z,22.53
2022-12-01T02:08:13.943Z,21.20
2022-12-01T02:10:40.961Z,20.53
2022-12-01T02:13:23.426Z,20.40
2022-12-01T02:16:06.900Z,19.90
2022-12-01T02:18:39.744Z,18.93
2022-12-01T02:21:42.039Z,19.03
2022-12-01T02:24:27.630Z,18.17
2022-12-01T02:27:07.663Z,18.70
2022-12-01T02:29:49.998Z,17.00
2022-12-01T02:32:17.231Z,18.03
2022-12-01T02:35:01.268Z,18.87
2022-12-01T02:37:44.507Z,18.57
2022-12-01T02:40:11.747Z,18.43
2022-12-01T02:42:50.500Z,18.73
2022-12-01T02:45:21.247Z,17.90
2022-12-01T02:47:49.863Z,16.87
2022-12-01T02:50:17.608Z,18.13
2022-12-01T02:52:44.944Z,18.47
2022-12-01T02:55:13.490Z,18.37
2022-12-01T02:57:40.562Z,19.63
2022-12-01T03:00:12.991Z,18.50
2022-12-01T03:02:49.423Z,19.57
2022-12-01T03:05:19.383Z,18.63
2022-12-01T03:08:13.852Z,19.70
2022-12-01T03:10:54.090Z,19.63
2022-12-01T03:13:36.080Z,19.10
2022-12-01T03:16:08.980Z,20.23
2022-12-01T03:18:36.119Z,19.23
2022-12-01T03:21:09.486Z,21.50
2022-12-01T03:23:39.215Z,20.70
2022-12-01T03:26:08.272Z,20.57
2022-12-01T03:28:38.783Z,20.30
2022-12-01T03:31:07.245Z,20.10
2022-12-01T03:33:41.533Z,19.93
2022-12-01T03:36:11.724Z,22.50
2022-12-01T03:38:41.101Z,21.27
2022-12-01T03:41:11.228Z,19.47
2022-12-01T03:43:41.846Z,23.20
2022-12-01T03:46:20.438Z,21.87
2022-12-01T03:48:47.576Z,21.27
2022-12-01T03:51:14.657Z,21.67
2022-12-01T03:53:49.334Z,21.37
2022-12-01T03:56:18.479Z,22.17
2022-12-01T03:58:47.938Z,22.90
2022-12-01T04:01:15.226Z,23.97
2022-12-01T04:03:42.353Z,21.97
2022-12-01T04:06:09.406Z,22.73
2022-12-01T04:08:37.456Z,23.10
2022-12-01T04:11:28.205Z,23.77
2022-12-01T04:13:58.135Z,24.23
2022-12-01T04:16:25.257Z,24.43
2022-12-01T04:18:52.320Z,23.77
2022-12-01T04:21:19.393Z,25.00
2022-12-01T04:24:01.752Z,23.37
2022-12-01T04:26:29.963Z,23.10
2022-12-01T04:28:57.049Z,25.70
2022-12-01T04:31:24.237Z,23.77
2022-12-01T04:33:51.296Z,23.43
2022-12-01T04:36:18.353Z,24.13
2022-12-01T04:38:45.381Z,21.70
2022-12-01T04:41:13.113Z,23.43
2022-12-01T04:43:40.296Z,24.27
2022-12-01T04:46:07.514Z,22.67
2022-12-01T04:48:35.882Z,21.77
2022-12-01T04:51:03.830Z,24.70
2022-12-01T04:53:30.875Z,24.30
2022-12-01T04:55:57.937Z,24.87
2022-12-01T04:58:24.947Z,23.90
2022-12-01T05:00:52.157Z,23.93
2022-12-01T05:03:19.296Z,26.13
2022-12-01T05:05:45.936Z,26.00
2022-12-01T05:08:12.577Z,25.57
2022-12-01T05:10:39.360Z,24.87
2022-12-01T05:13:06.494Z,27.87
2022-12-01T05:15:33.274Z,25.20
2022-12-01T05:18:00.652Z,25.50
2022-12-01T05:20:46.066Z,25.40
2022-12-01T05:23:16.709Z,26.20
2022-12-01T05:25:43.870Z,26.37
2022-12-01T05:28:10.612Z,25.10
2022-12-01T05:30:37.276Z,24.77
2022-12-01T05:33:03.945Z,22.37
2022-12-01T05:35:32.475Z,24.53
2022-12-01T05:38:01.967Z,24.40
2022-12-01T05:40:33.045Z,24.77
2022-12-01T05:42:59.838Z,23.13
2022-12-01T05:45:26.584Z,22.90
2022-12-01T05:47:56.948Z,23.43
2022-12-01T05:50:24.783Z,25.03
2022-12-01T05:52:51.588Z,26.50
2022-12-01T05:55:18.605Z,24.73
2022-12-01T05:57:45.410Z,24.83
2022-12-01T06:00:13.755Z,23.67
2022-12-01T06:02:41.357Z,23.93
2022-12-01T06:05:09.237Z,24.57
2022-12-01T06:07:36.262Z,24.80
2022-12-01T06:10:03.506Z,24.40
2022-12-01T06:12:30.142Z,23.80
2022-12-01T06:14:56.827Z,22.23
2022-12-01T06:17:23.709Z,22.00
2022-12-01T06:19:50.520Z,22.67
2022-12-01T06:22:17.349Z,22.73
2022-12-01T06:24:44.107Z,21.50
2022-12-01T06:27:10.733Z,20.33
2022-12-01T06:29:41.959Z,20.17
2022-12-01T06:32:10.209Z,21.07
2022-12-01T06:34:36.857Z,19.37
2022-12-01T06:37:03.520Z,19.30
2022-12-01T06:39:30.133Z,20.67
2022-12-01T06:41:56.759Z,20.33
2022-12-01T06:44:23.397Z,19.70
2022-12-01T06:46:52.815Z,16.67
2022-12-01T06:49:20.143Z,19.43
2022-12-01T06:51:49.245Z,19.20
2022-12-01T06:54:17.754Z,18.23
2022-12-01T06:56:45.910Z,18.50
2022-12-01T06:59:13.060Z,16.67
2022-12-01T07:01:40.129Z,18.07
2022-12-01T07:04:06.804Z,15.77
2022-12-01T07:06:33.716Z,18.27
2022-12-01T07:09:00.324Z,18.70
2022-12-01T07:11:27.036Z,17.57
2022-12-01T07:13:56.804Z,17.73
2022-12-01T07:16:23.581Z,18.47
2022-12-01T07:18:50.884Z,17.50
2022-12-01T07:21:17.584Z,18.80
2022-12-01T07:23:44.295Z,19.23
2022-12-01T07:26:16.364Z,17.90
2022-12-01T07:28:43.806Z,18.33
2022-12-01T07:31:19.018Z,17.57
2022-12-01T07:33:46.088Z,18.27
2022-12-01T07:36:14.379Z,18.10
2022-12-01T07:38:41.910Z,17.30
2022-12-01T07:41:19.270Z,18.90
2022-12-01T07:43:46.770Z,16.40
2022-12-01T07:46:23.636Z,16.73
2022-12-01T07:48:50.914Z,16.87
2022-12-01T07:51:17.977Z,15.40
2022-12-01T07:53:46.526Z,16.50
2022-12-01T07:56:13.561Z,16.93
2022-12-01T07:58:40.590Z,16.23
2022-12-01T08:01:12.765Z,17.67
2022-12-01T08:03:40.124Z,16.90
2022-12-01T08:06:07.982Z,16.67
2022-12-01T08:08:36.400Z,15.83
2022-12-01T08:11:06.721Z,17.00
2022-12-01T08:13:33.893Z,16.17
2022-12-01T08:16:04.256Z,16.07
2022-12-01T08:18:30.929Z,16.83
2022-12-01T08:21:00.299Z,16.27
2022-12-01T08:23:27.240Z,16.77
2022-12-01T08:25:53.990Z,19.73
2022-12-01T08:28:21.236Z,17.67
2022-12-01T08:30:48.025Z,18.70
2022-12-01T08:33:14.745Z,18.87
2022-12-01T08:35:41.434Z,20.67
2022-12-01T08:38:08.490Z,20.97
2022-12-01T08:40:35.536Z,21.73
2022-12-01T08:43:02.662Z,22.17
2022-12-01T08:45:29.759Z,24.50
2022-12-01T08:47:58.945Z,23.47
2022-12-01T08:50:26.690Z,24.47
2022-12-01T08:52:53.746Z,23.93
2022-12-01T08:55:22.057Z,24.90
2022-12-01T08:57:49.200Z,25.40
2022-12-01T09:00:16.711Z,25.70
2022-12-01T09:02:43.754Z,27.10
2022-12-01T09:05:11.033Z,27.73
2022-12-01T09:07:38.269Z,27.63
2022-12-01T09:10:05.917Z,28.60
2022-12-01T09:12:33.009Z,29.53
2022-12-01T09:15:00.074Z,28.30
2022-12-01T09:17:27.125Z,31.40
2022-12-01T09:19:54.165Z,31.90
2022-12-01T09:22:21.187Z,31.80
2022-12-01T09:24:48.230Z,31.53
2022-12-01T09:27:15.248Z,32.80
2022-12-01T09:29:42.282Z,31.77
2022-12-01T09:32:09.308Z,33.27
2022-12-01T09:34:36.378Z,33.20
2022-12-01T09:37:03.471Z,32.30
2022-12-01T09:39:30.571Z,31.00
2022-12-01T09:42:00.296Z,31.47
2022-12-01T09:44:27.306Z,30.70
2022-12-01T09:46:58.479Z,32.23
2022-12-01T09:49:35.067Z,32.00
2022-12-01T09:52:02.176Z,32.77
2022-12-01T09:54:29.912Z,32.33
2022-12-01T09:56:59.441Z,32.83
2022-12-01T09:59:27.800Z,31.47
2022-12-01T10:02:01.474Z,32.20
2022-12-01T10:04:28.588Z,31.30
2022-12-01T10:07:03.702Z,32.50
2022-12-01T10:09:33.520Z,34.47
2022-12-01T10:12:05.225Z,34.17
2022-12-01T10:14:34.441Z,35.00
2022-12-01T10:17:13.068Z,35.20
2022-12-01T10:19:47.750Z,34.60
2022-12-01T10:22:15.036Z,36.37
2022-12-01T10:24:55.744Z,35.20
2022-12-01T10:27:28.725Z,36.20
2022-12-01T10:29:55.747Z,36.30
2022-12-01T10:32:35.137Z,37.60
2022-12-01T10:35:02.225Z,37.37
2022-12-01T10:37:30.433Z,37.73
2022-12-01T10:39:58.518Z,35.70
2022-12-01T10:42:30.855Z,35.80
2022-12-01T10:45:00.408Z,35.40
2022-12-01T10:47:28.793Z,38.00
2022-12-01T10:49:56.333Z,37.57
2022-12-01T10:52:37.595Z,36.50
2022-12-01T10:55:26.277Z,35.33
2022-12-01T10:57:54.455Z,35.00
2022-12-01T11:00:51.372Z,36.37
2022-12-01T11:03:21.731Z,34.70
2022-12-01T11:05:53.764Z,34.63
2022-12-01T11:08:25.349Z,36.93
2022-12-01T11:10:52.555Z,36.97
2022-12-01T11:13:24.388Z,36.63
2022-12-01T11:15:54.981Z,35.17
2022-12-01T11:18:32.833Z,34.50
2022-12-01T11:21:11.209Z,36.67
2022-12-01T11:23:39.134Z,37.07
2022-12-01T11:26:14.290Z,38.37
2022-12-01T11:28:43.754Z,34.90
2022-12-01T11:31:11.483Z,37.03
2022-12-01T11:33:43.706Z,35.17
2022-12-01T11:36:16.072Z,34.10
2022-12-01T11:38:43.407Z,37.60
2022-12-01T11:41:23.731Z,35.93
2022-12-01T11:44:01.209Z,34.50
2022-12-01T11:46:33.381Z,34.80
2022-12-01T11:49:01.006Z,34.07
2022-12-01T11:51:31.782Z,35.43
2022-12-01T11:54:06.642Z,32.53
2022-12-01T11:56:33.700Z,33.87
2022-12-01T11:59:12.157Z,33.10
2022-12-01T12:01:48.253Z,31.10
2022-12-01T12:04:18.090Z,31.77
2022-12-01T12:06:45.300Z,31.30
2022-12-01T12:09:26.603Z,31.57
2022-12-01T12:12:17.340Z,33.83
2022-12-01T12:14:49.394Z,31.10
2022-12-01T12:17:21.417Z,32.03
2022-12-01T12:20:18.296Z,32.83
2022-12-01T12:22:55.751Z,33.00
2022-12-01T12:25:28.241Z,31.60
2022-12-01T12:27:58.318Z,33.03
2022-12-01T12:30:29.786Z,33.50
2022-12-01T12:33:02.762Z,33.67
2022-12-01T12:35:45.570Z,33.67
2022-12-01T12:38:12.584Z,35.77
2022-12-01T12:40:45.243Z,34.43
2022-12-01T12:43:33.254Z,34.57
2022-12-01T12:46:06.475Z,38.53
2022-12-01T12:49:11.623Z,35.73
2022-12-01T12:51:37.713Z,34.73
2022-12-01T12:54:25.906Z,34.07
2022-12-01T12:56:55.657Z,34.73
2022-12-01T12:59:25.608Z,35.87
2022-12-01T13:01:58.731Z,36.33
2022-12-01T13:04:35.303Z,37.40
2022-12-01T13:07:21.366Z,35.27
2022-12-01T13:09:52.392Z,34.13
2022-12-01T13:12:29.397Z,35.13
2022-12-01T13:15:01.428Z,35.37
2022-12-01T13:17:35.580Z,33.60
2022-12-01T13:20:03.416Z,36.53
2022-12-01T13:22:31.616Z,34.87
2022-12-01T13:24:58.718Z,36.33
2022-12-01T13:27:27.441Z,36.23
2022-12-01T13:29:55.523Z,36.37
2022-12-01T13:32:36.467Z,34.57
2022-12-01T13:35:06.477Z,34.87
2022-12-01T13:37:35.339Z,34.10
2022-12-01T13:40:28.600Z,34.87
2022-12-01T13:42:58.298Z,34.20
2022-12-01T13:45:25.490Z,32.53
2022-12-01T13:47:54.343Z,35.07
2022-12-01T13:50:39.768Z,32.77
2022-12-01T13:53:25.734Z,34.77
2022-12-01T13:56:07.985Z,32.03
2022-12-01T13:58:35.041Z,32.93
2022-12-01T14:01:20.573Z,30.97
2022-12-01T14:04:20.298Z,34.00
2022-12-01T14:06:49.490Z,31.30
2022-12-01T14:09:32.449Z,32.30
2022-12-01T14:12:02.594Z,32.07
2022-12-01T14:14:35.235Z,33.33
2022-12-01T14:17:03.176Z,32.93
2022-12-01T14:19:30.240Z,32.20
2022-12-01T14:21:57.806Z,33.07
2022-12-01T14:24:27.770Z,32.53
2022-12-01T14:26:55.413Z,32.50
2022-12-01T14:29:48.587Z,33.23
2022-12-01T14:32:15.619Z,32.77
2022-12-01T14:34:43.339Z,31.60
2022-12-01T14:37:11.947Z,31.77
2022-12-01T14:39:42.261Z,32.70
2022-12-01T14:42:12.649Z,29.23
2022-12-01T14:44:43.281Z,32.47
2022-12-01T14:47:20.108Z,33.17
2022-12-01T14:49:49.898Z,33.57
2022-12-01T14:52:35.520Z,32.60
2022-12-01T14:55:05.437Z,30.80
2022-12-01T14:57:38.412Z,30.47
2022-12-01T15:00:10.938Z,29.40
2022-12-01T15:02:42.006Z,31.47
2022-12-01T15:05:11.462Z,30.07
2022-12-01T15:07:39.797Z,31.87
2022-12-01T15:10:07.422Z,29.93
2022-12-01T15:12:34.490Z,30.87
2022-12-01T15:15:02.601Z,33.87
2022-12-01T15:17:31.232Z,31.07
2022-12-01T15:19:58.380Z,30.47
2022-12-01T15:22:29.487Z,29.87
2022-12-01T15:25:05.717Z,29.67
2022-12-01T15:27:33.619Z,30.20
2022-12-01T15:30:04.360Z,31.23
2022-12-01T15:32:32.482Z,31.17
2022-12-01T15:35:04.689Z,30.53
2022-12-01T15:37:41.148Z,32.17
2022-12-01T15:40:59.696Z,33.73
2022-12-01T15:43:15.848Z,29.43
2022-12-01T15:45:48.950Z,28.97
2022-12-01T15:48:30.337Z,29.50
2022-12-01T15:51:14.825Z,28.73
2022-12-01T15:53:47.851Z,28.40
2022-12-01T15:56:15.103Z,28.77
2022-12-01T15:58:44.610Z,28.77
2022-12-01T16:01:13.625Z,30.83
2022-12-01T16:03:50.141Z,29.27
2022-12-01T16:06:17.840Z,28.13
2022-12-01T16:08:53.881Z,27.80
2022-12-01T16:11:21.962Z,29.93
2022-12-01T16:13:49.239Z,29.20
2022-12-01T16:16:28.487Z,30.57
2022-12-01T16:19:02.806Z,28.77
2022-12-01T16:21:34.502Z,29.37
2022-12-01T16:24:02.475Z,34.33
2022-12-01T16:26:30.103Z,32.33
2022-12-01T16:28:57.374Z,29.97
2022-12-01T16:31:25.970Z,29.20
2022-12-01T16:34:13.808Z,29.90
2022-12-01T16:36:50.363Z,32.90
2022-12-01T16:39:17.686Z,32.27
2022-12-01T16:41:46.666Z,31.17
2022-12-01T16:44:32.153Z,28.80
2022-12-01T16:46:59.238Z,29.40
2022-12-01T16:49:26.406Z,30.47
2022-12-01T16:51:56.507Z,29.97
2022-12-01T16:54:24.468Z,28.17
2022-12-01T16:56:51.529Z,27.87
2022-12-01T16:59:18.589Z,28.67
2022-12-01T17:01:45.730Z,29.13
2022-12-01T17:04:12.817Z,28.67
2022-12-01T17:06:40.042Z,29.00
2022-12-01T17:09:07.180Z,28.07
2022-12-01T17:11:34.264Z,27.20
2022-12-01T17:14:01.358Z,27.03
2022-12-01T17:16:28.463Z,25.43
2022-12-01T17:18:55.825Z,25.63
2022-12-01T17:21:22.884Z,26.07
2022-12-01T17:23:49.952Z,26.87
2022-12-01T17:26:17.848Z,25.30
2022-12-01T17:28:44.954Z,25.50
2022-12-01T17:31:12.395Z,25.37
2022-12-01T17:33:39.845Z,25.43
2022-12-01T17:36:14.091Z,25.10
2022-12-01T17:38:42.482Z,25.07
2022-12-01T17:41:10.592Z,26.83
2022-12-01T17:43:38.478Z,25.50
2022-12-01T17:46:06.783Z,26.07
2022-12-01T17:48:41.173Z,25.33
2022-12-01T17:51:09.003Z,24.77
2022-12-01T17:53:36.915Z,24.13
2022-12-01T17:56:06.657Z,23.73
2022-12-01T17:58:33.846Z,25.07
2022-12-01T18:01:01.035Z,25.37
2022-12-01T18:03:28.110Z,24.03
2022-12-01T18:05:56.267Z,26.17
2022-12-01T18:08:23.891Z,24.20
2022-12-01T18:10:50.953Z,22.93
2022-12-01T18:13:20.330Z,23.07
2022-12-01T18:15:48.477Z,23.33
2022-12-01T18:18:15.516Z,23.07
2022-12-01T18:20:43.458Z,23.93
2022-12-01T18:23:11.137Z,24.43
2022-12-01T18:25:38.411Z,23.23
2022-12-01T18:28:06.143Z,25.87
2022-12-01T18:30:34.488Z,24.43
2022-12-01T18:33:01.724Z,25.57
2022-12-01T18:35:31.707Z,22.90
2022-12-01T18:37:59.413Z,28.67
2022-12-01T18:40:26.456Z,25.80
2022-12-01T18:42:53.527Z,24.53
2022-12-01T18:45:21.468Z,24.27
2022-12-01T18:47:48.751Z,26.03
2022-12-01T18:50:15.891Z,24.33
2022-12-01T18:52:42.981Z,24.90
2022-12-01T18:55:10.068Z,25.57
2022-12-01T18:57:37.164Z,28.03
2022-12-01T19:00:07.502Z,26.37
2022-12-01T19:02:34.651Z,30.40
2022-12-01T19:05:01.741Z,27.80
2022-12-01T19:07:30.091Z,28.17
2022-12-01T19:09:57.331Z,29.30
2022-12-01T19:12:24.391Z,28.10
2022-12-01T19:14:52.989Z,28.00
2022-12-01T19:17:20.343Z,27.13
2022-12-01T19:19:47.429Z,26.87
2022-12-01T19:22:14.584Z,27.90
2022-12-01T19:24:44.768Z,28.30
2022-12-01T19:27:14.281Z,26.17
2022-12-01T19:29:41.349Z,26.67
2022-12-01T19:32:08.653Z,27.23
2022-12-01T19:34:35.681Z,28.40
2022-12-01T19:37:02.966Z,27.23
2022-12-01T19:39:30.064Z,27.17
2022-12-01T19:41:57.861Z,28.30
2022-12-01T19:44:24.978Z,27.17
2022-12-01T19:46:52.021Z,28.60
2022-12-01T19:49:19.100Z,26.07
2022-12-01T19:51:46.320Z,29.63
2022-12-01T19:54:14.772Z,27.57
2022-12-01T19:56:41.929Z,25.90
2022-12-01T19:59:11.244Z,29.27
2022-12-01T20:01:38.571Z,27.77
2022-12-01T20:04:05.812Z,26.00
2022-12-01T20:06:33.781Z,27.47
2022-12-01T20:09:02.050Z,26.30
2022-12-01T20:11:29.748Z,27.37
2022-12-01T20:13:56.944Z,26.83
2022-12-01T20:16:25.160Z,28.40
2022-12-01T20:18:53.044Z,24.87
2022-12-01T20:21:21.490Z,26.33
2022-12-01T20:23:49.580Z,26.73
2022-12-01T20:26:17.275Z,26.13
2022-12-01T20:28:45.522Z,25.93
2022-12-01T20:31:14.288Z,26.40
2022-12-01T20:33:41.830Z,26.77
2022-12-01T20:36:09.527Z,26.87
2022-12-01T20:38:36.696Z,26.10
2022-12-01T20:41:04.362Z,27.77
2022-12-01T20:43:31.549Z,26.93
2022-12-01T20:45:58.691Z,27.97
2022-12-01T20:48:26.197Z,28.63
2022-12-01T20:50:53.324Z,27.23
2022-12-01T20:53:20.754Z,29.90
2022-12-01T20:55:47.883Z,28.63
2022-12-01T20:58:14.938Z,29.07
2022-12-01T21:00:46.559Z,31.07
2022-12-01T21:03:14.077Z,28.77
2022-12-01T21:05:41.998Z,30.00
2022-12-01T21:08:10.389Z,30.03
2022-12-01T21:10:38.129Z,27.27
2022-12-01T21:13:39.449Z,26.83
2022-12-01T21:16:13.712Z,27.03
2022-12-01T21:18:55.384Z,26.53
2022-12-01T21:21:29.464Z,24.20
2022-12-01T21:24:09.403Z,28.43
2022-12-01T21:26:40.965Z,27.67
2022-12-01T21:29:21.521Z,25.17
2022-12-01T21:31:50.213Z,25.30
2022-12-01T21:34:24.696Z,23.57
2022-12-01T21:36:52.788Z,24.37
2022-12-01T21:39:21.327Z,24.87
2022-12-01T21:41:49.354Z,24.53
2022-12-01T21:44:18.777Z,27.20
2022-12-01T21:46:46.217Z,24.00
2022-12-01T21:49:13.251Z,24.27
2022-12-01T21:51:40.339Z,24.47
2022-12-01T21:54:11.138Z,26.80
2022-12-01T21:56:38.365Z,24.63
2022-12-01T21:59:20.158Z,24.20
2022-12-01T22:01:47.840Z,23.10
2022-12-01T22:04:22.223Z,25.10
2022-12-01T22:06:51.693Z,21.50
2022-12-01T22:09:30.822Z,27.87
2022-12-01T22:12:02.055Z,28.53
2022-12-01T22:14:35.862Z,28.40
2022-12-01T22:17:15.264Z,24.83
2022-12-01T22:19:45.690Z,21.73
2022-12-01T22:22:12.896Z,25.63
2022-12-01T22:24:41.309Z,22.73
2022-12-01T22:27:20.817Z,25.70
2022-12-01T22:29:48.830Z,22.93
2022-12-01T22:32:15.850Z,25.50
2022-12-01T22:34:45.950Z,24.40
2022-12-01T22:37:20.718Z,23.53
2022-12-01T22:39:48.501Z,24.97
2022-12-01T22:42:19.939Z,21.63
2022-12-01T22:44:47.440Z,23.03
2022-12-01T22:47:15.339Z,21.80
2022-12-01T22:49:42.954Z,21.70
2022-12-01T22:52:13.093Z,21.87
2022-12-01T22:54:43.535Z,21.13
2022-12-01T22:57:10.655Z,21.83
2022-12-01T22:59:42.191Z,22.90
2022-12-01T23:02:20.591Z,23.57
2022-12-01T23:04:49.006Z,25.67
2022-12-01T23:07:22.386Z,19.77
2022-12-01T23:09:49.522Z,18.37
2022-12-01T23:12:21.836Z,18.97
2022-12-01T23:14:50.529Z,20.00
2022-12-01T23:17:22.308Z,18.93
2022-12-01T23:19:50.494Z,19.17
2022-12-01T23:22:18.331Z,20.17
2022-12-01T23:24:45.895Z,18.93
2022-12-01T23:27:13.474Z,18.83
2022-12-01T23:29:40.613Z,19.30
2022-12-01T23:32:07.669Z,21.50
2022-12-01T23:34:35.096Z,20.37
2022-12-01T23:37:02.601Z,19.90
2022-12-01T23:39:32.625Z,19.27
2022-12-01T23:42:00.225Z,18.97
2022-12-01T23:44:27.294Z,19.80
2022-12-01T23:46:56.520Z,21.23
2022-12-01T23:49:26.147Z,21.03
2022-12-01T23:51:54.544Z,19.83
2022-12-01T23:54:21.673Z,22.03
2022-12-01T23:56:51.349Z,22.57
2022-12-01T23:59:18.692Z,20.13
